Aérodrome :
LOGIN :

S'inscrire | Disclaimer

   EN    FR    IT 

 










Légende :    VFR   VFR Marginal   IFR   IFR Intensif   IFR Très Intensif
Visi : 
Plafond : 
>= 8 km
>= 3000ft
5 à 8 km
1000 à 3000 ft
1500m à 5 km
500 à 1000 ft
800 à 1500m
200 à 500 ft
< 800m
< 200 ft
Symboles :   Orages  Brouillard  Fortes neiges  Fortes précipitations  Vent > 20 kt
SIGMETs :   Divers  Orages  Givrage  Turbulence  Onde Orograph.  Cendres Volcan.







- Altitude de l'aérodrome : 359 ft
- Code IATA : BVA
- Voir les cartes d'approche


LFOB - Beauvais

DERNIER METAR :
  • 221400Z AUTO 20005KT 6000 OVC005 01/01 Q1003 TEMPO 3000 SHRA BKN003 BKN012TCU

METARs EXPIRÉS :
  • 221330Z AUTO 20005KT 7000 OVC007 02/01 Q1004 TEMPO 3000 SHRA BKN003 BKN012TCU
  • 221300Z AUTO 20005KT 5000 BR OVC006 01/01 Q1004 TEMPO SHRA BKN003 BKN012TCU
  • 221230Z AUTO 17004KT 4100 BR OVC006 01/00 Q1005 TEMPO SHRA BKN003 BKN012TCU
  • 221200Z AUTO VRB03KT 4700 BR OVC006 01/00 Q1005 TEMPO SHRA BKN003 BKN012TCU
  • 221130Z AUTO 20006KT 5000 BR OVC007 01/00 Q1005 NOSIG

TAF TAF LFOB
Valide du 22 à 12h jusqu'au 23 à 12h UTC


221100Z 2212/2312 17006KT 6000 OVC006
PROB30
TEMPO 2212/2216 3000 SHRA BKN003 BKN012TCU
TEMPO 2219/2222 1500 SHSN BKN003 BKN030TCU
TEMPO 2306/2312 1500 SHSN BKN003 BKN030TCU
ATIS : +33 3 44 11 49 28
Pas de NOTAMs connus pour ce terrain.



MET'MAP, la Météo Aéronautique d'un coup d'oeil ! - Copyright ORBIFLY Décembre 2007 - Disclaimer

ORBIFLY MET'MAP TEAM :

Programmation & Développement : Alexandra Zaïnal
Conception & Développement : Baudouin d'Aumeries
Co-Programmation & Développement : Marc-Olivier Méhu
Soutien technique & logistique : Manuel Goepfert

Contact : metmap@orbifly.com




SOURCES & CREDITS :

   NOAA